Time;durP1;ratioP1;P1;durP2;ratioP2;P2;SDS_P1;SDS_P2;PMS_P1;PMS_P2;Temp;Humidity;BMP_temperature;BMP_pressure;BME280_temperature;BME280_humidity;BME280_pressure;Samples;Min_cycle;Max_cycle;Signal;HPM_P1;HPM_P2
2022/10/26 00:01:07;;;;;;;6.43;2.42;;;12.00;99.90;;;;;;5040704;28;20403;-74
2022/10/26 00:03:36;;;;;;;6.75;3.03;;;12.00;99.90;;;;;;5040897;28;20049;-69
2022/10/26 00:06:14;;;;;;;7.10;2.42;;;12.00;99.90;;;;;;5037542;28;20140;-64
2022/10/26 00:08:41;;;;;;;10.80;3.25;;;12.00;99.90;;;;;;5041898;28;20048;-68
2022/10/26 00:11:09;;;;;;;10.55;3.90;;;12.00;99.90;;;;;;5040387;28;20051;-66
2022/10/26 00:13:37;;;;;;;6.70;3.05;;;12.00;99.90;;;;;;5044613;28;20819;-71
2022/10/26 00:16:09;;;;;;;11.63;3.75;;;12.00;99.90;;;;;;5041084;28;20052;-70
2022/10/26 00:18:35;;;;;;;7.75;3.08;;;12.00;99.90;;;;;;5038195;28;20134;-67
2022/10/26 00:21:07;;;;;;;5.63;2.08;;;12.00;99.90;;;;;;5041116;28;20043;-66
2022/10/26 00:23:34;;;;;;;5.97;2.55;;;12.00;99.90;;;;;;5041567;28;20040;-66
2022/10/26 00:26:02;;;;;;;5.32;2.13;;;12.00;99.90;;;;;;5041972;28;20049;-67
2022/10/26 00:28:29;;;;;;;7.75;2.55;;;12.00;99.90;;;;;;5039537;28;20530;-70
2022/10/26 00:31:01;;;;;;;9.88;2.85;;;12.00;99.90;;;;;;5042888;28;20067;-68
2022/10/26 00:33:29;;;;;;;8.25;2.63;;;12.00;99.90;;;;;;5045304;28;20083;-69
2022/10/26 00:35:56;;;;;;;8.27;2.65;;;12.00;99.90;;;;;;5035040;28;20034;-65
2022/10/26 00:38:23;;;;;;;5.47;2.03;;;12.00;99.90;;;;;;5034262;28;20136;-65
2022/10/26 00:40:50;;;;;;;7.78;2.28;;;12.00;99.90;;;;;;5040664;28;20483;-68
2022/10/26 00:43:20;;;;;;;3.70;2.45;;;12.00;99.90;;;;;;5044215;28;20052;-66
2022/10/26 00:45:50;;;;;;;6.93;2.03;;;12.00;99.90;;;;;;5044829;28;20045;-65
2022/10/26 00:48:30;;;;;;;7.55;2.53;;;12.00;99.90;;;;;;5038611;28;20419;-68
2022/10/26 00:51:01;;;;;;;10.93;2.65;;;12.00;99.90;;;;;;5040909;28;20051;-65
2022/10/26 00:53:29;;;;;;;5.93;2.08;;;12.00;99.90;;;;;;5038918;28;20076;-66
2022/10/26 00:55:57;;;;;;;4.15;2.25;;;11.90;99.90;;;;;;5040954;28;20051;-65
2022/10/26 00:58:25;;;;;;;3.40;1.85;;;11.90;99.90;;;;;;5039177;28;20048;-65
2022/10/26 01:00:52;;;;;;;5.40;1.92;;;11.80;99.90;;;;;;5042033;28;20040;-67
2022/10/26 01:03:19;;;;;;;6.00;2.60;;;11.80;99.90;;;;;;5040452;28;20132;-67
2022/10/26 01:05:48;;;;;;;5.25;2.83;;;11.80;99.90;;;;;;5038133;28;20561;-66
2022/10/26 01:08:17;;;;;;;10.95;2.78;;;11.80;99.90;;;;;;5037974;28;20059;-71
2022/10/26 01:10:44;;;;;;;13.65;3.45;;;11.80;99.90;;;;;;5035683;28;20041;-65
2022/10/26 01:13:14;;;;;;;10.20;2.83;;;11.80;99.90;;;;;;5039203;28;20053;-68
2022/10/26 01:16:13;;;;;;;7.88;3.58;;;11.80;99.90;;;;;;5039709;28;20147;-68
2022/10/26 01:19:03;;;;;;;10.10;2.60;;;11.70;99.90;;;;;;5026630;28;22644;-66
2022/10/26 01:21:45;;;;;;;;;;;11.70;99.90;;;;;;5035552;28;20061;-66
2022/10/26 01:24:53;;;;;;;11.18;2.63;;;11.70;99.90;;;;;;5039953;28;19952;-65
2022/10/26 01:27:36;;;;;;;7.43;2.33;;;11.70;99.90;;;;;;5037602;28;20143;-66
2022/10/26 01:30:25;;;;;;;7.80;2.45;;;11.70;99.90;;;;;;5039619;28;20044;-64
2022/10/26 01:33:27;;;;;;;15.30;3.35;;;11.70;99.90;;;;;;5038558;28;20395;-68
2022/10/26 01:36:16;;;;;;;10.55;2.65;;;11.70;99.90;;;;;;4994781;28;20056;-66
2022/10/26 01:38:53;;;;;;;12.32;2.85;;;11.70;99.90;;;;;;5036120;28;20442;-68
2022/10/26 01:41:28;;;;;;;6.60;2.50;;;11.70;99.90;;;;;;5036520;28;20660;-65
2022/10/26 01:44:03;;;;;;;5.90;2.55;;;11.70;99.90;;;;;;5031344;28;20690;-71
2022/10/26 01:46:36;;;;;;;19.58;3.78;;;11.70;99.90;;;;;;5036776;28;20045;-67
2022/10/26 01:49:08;;;;;;;6.40;2.90;;;11.70;99.90;;;;;;5033445;28;20144;-65
2022/10/26 01:51:36;;;;;;;6.38;2.30;;;11.70;99.90;;;;;;5042726;28;20047;-66
2022/10/26 01:54:03;;;;;;;5.00;2.40;;;11.80;99.90;;;;;;5036640;28;20131;-64
2022/10/26 01:56:36;;;;;;;5.55;1.85;;;11.80;99.90;;;;;;5041592;28;20847;-65
2022/10/26 01:59:28;;;;;;;6.63;1.98;;;11.80;99.90;;;;;;5035360;28;20814;-66
2022/10/26 02:02:20;;;;;;;6.85;2.30;;;11.80;99.90;;;;;;5043315;28;20068;-66
2022/10/26 02:05:06;;;;;;;4.97;1.65;;;11.80;99.90;;;;;;5032723;28;20048;-66
2022/10/26 02:07:56;;;;;;;6.70;2.25;;;11.90;99.90;;;;;;5040380;28;20075;-65
2022/10/26 02:10:34;;;;;;;8.50;1.92;;;11.90;99.90;;;;;;5037962;28;20144;-66
2022/10/26 02:13:09;;;;;;;12.02;2.47;;;11.90;99.90;;;;;;5037938;28;20052;-69
2022/10/26 02:15:54;;;;;;;8.45;2.42;;;11.90;99.90;;;;;;5042957;28;20047;-68
2022/10/26 02:18:29;;;;;;;5.40;2.22;;;11.80;99.90;;;;;;5032495;28;20382;-66
2022/10/26 02:21:02;;;;;;;4.82;1.90;;;11.90;99.90;;;;;;5033744;28;20045;-64
2022/10/26 02:23:31;;;;;;;4.72;1.88;;;11.90;99.90;;;;;;5033340;28;20059;-67
2022/10/26 02:26:00;;;;;;;11.25;1.95;;;11.90;99.90;;;;;;5038202;28;20048;-70
2022/10/26 02:28:32;;;;;;;11.40;2.22;;;11.90;99.90;;;;;;5037151;28;20051;-70
2022/10/26 02:31:01;;;;;;;5.32;2.63;;;11.90;99.90;;;;;;5031833;28;20498;-71
2022/10/26 02:33:34;;;;;;;4.07;1.80;;;11.90;99.90;;;;;;5037831;28;20402;-67
2022/10/26 02:36:06;;;;;;;10.13;2.08;;;11.90;99.90;;;;;;5039346;28;20103;-67
2022/10/26 02:38:34;;;;;;;7.30;2.83;;;11.90;99.90;;;;;;5035374;28;20445;-71
2022/10/26 02:41:02;;;;;;;5.10;1.85;;;11.90;99.90;;;;;;5041833;28;20068;-68
2022/10/26 02:43:32;;;;;;;5.20;1.65;;;11.90;99.90;;;;;;5036346;28;20041;-66
2022/10/26 02:46:05;;;;;;;6.10;1.98;;;11.90;99.90;;;;;;5039108;28;20075;-67
2022/10/26 02:48:33;;;;;;;5.25;2.10;;;11.90;99.90;;;;;;5034292;28;20411;-70
2022/10/26 02:51:29;;;;;;;10.07;2.45;;;11.90;99.90;;;;;;5042864;28;20047;-66
2022/10/26 02:54:14;;;;;;;9.63;2.05;;;11.90;99.90;;;;;;5037746;28;20092;-65
2022/10/26 02:56:50;;;;;;;5.55;3.03;;;11.90;99.90;;;;;;5035429;28;20063;-66
2022/10/26 02:59:20;;;;;;;2.53;1.48;;;11.90;99.90;;;;;;5039062;28;20055;-68
2022/10/26 03:01:49;;;;;;;7.35;3.25;;;11.90;99.90;;;;;;5036667;28;20503;-67
2022/10/26 03:04:16;;;;;;;10.68;2.70;;;11.90;99.90;;;;;;5039447;28;20123;-66
2022/10/26 03:06:51;;;;;;;11.45;2.13;;;11.90;99.90;;;;;;5035125;28;20045;-67
2022/10/26 03:09:18;;;;;;;6.10;1.80;;;11.90;99.90;;;;;;5032942;28;20060;-67
2022/10/26 03:11:49;;;;;;;;;;;11.90;99.90;;;;;;5034044;28;20125;-66
2022/10/26 03:14:16;;;;;;;6.82;1.92;;;11.90;99.90;;;;;;5031334;28;19925;-71
2022/10/26 03:16:43;;;;;;;7.30;2.28;;;11.90;99.90;;;;;;5038976;28;20045;-72
2022/10/26 03:19:10;;;;;;;7.80;1.70;;;11.90;99.90;;;;;;5033558;28;20045;-67
2022/10/26 03:21:37;;;;;;;5.07;1.70;;;11.90;99.90;;;;;;5034216;28;20143;-66
2022/10/26 03:24:04;;;;;;;7.85;2.38;;;11.90;99.90;;;;;;5036923;28;20081;-68
2022/10/26 03:26:31;;;;;;;3.58;1.70;;;11.90;99.90;;;;;;5036764;28;20464;-69
2022/10/26 03:28:58;;;;;;;3.58;1.50;;;11.90;99.90;;;;;;5029829;28;20041;-69
2022/10/26 03:31:25;;;;;;;5.07;1.40;;;11.90;99.90;;;;;;5037810;28;20077;-68
2022/10/26 03:33:52;;;;;;;5.10;2.55;;;11.90;99.90;;;;;;5037804;28;20432;-70
2022/10/26 03:36:19;;;;;;;4.38;1.70;;;11.80;99.90;;;;;;5036850;28;20060;-65
2022/10/26 03:38:45;;;;;;;5.93;2.35;;;11.90;99.90;;;;;;5034108;28;20053;-65
2022/10/26 03:41:12;;;;;;;4.35;2.05;;;11.90;99.90;;;;;;5034512;28;20051;-67
2022/10/26 03:43:39;;;;;;;4.82;1.92;;;11.80;99.90;;;;;;5036983;28;20053;-65
2022/10/26 03:46:06;;;;;;;4.22;1.50;;;11.90;99.90;;;;;;5036069;28;20134;-65
2022/10/26 03:48:33;;;;;;;3.20;2.10;;;11.80;99.90;;;;;;5040541;28;20045;-68
2022/10/26 03:51:00;;;;;;;6.18;1.90;;;11.80;99.90;;;;;;5039307;28;20124;-64
2022/10/26 03:53:27;;;;;;;2.28;2.08;;;11.80;99.90;;;;;;5036828;28;20056;-68
2022/10/26 03:55:54;;;;;;;3.90;1.63;;;11.80;99.90;;;;;;5041486;28;20072;-66
2022/10/26 03:58:20;;;;;;;3.70;1.50;;;11.80;99.90;;;;;;5037418;28;20664;-66
2022/10/26 04:00:47;;;;;;;4.90;1.50;;;11.80;99.90;;;;;;5042764;28;20648;-66
2022/10/26 04:03:14;;;;;;;4.40;1.60;;;11.80;99.90;;;;;;5042536;28;20053;-67
2022/10/26 04:05:41;;;;;;;2.90;1.73;;;11.80;99.90;;;;;;5042780;28;20522;-67
2022/10/26 04:08:08;;;;;;;5.57;1.23;;;11.80;99.90;;;;;;5037065;28;20136;-65
2022/10/26 04:10:36;;;;;;;10.50;2.33;;;11.80;99.90;;;;;;5036945;28;20068;-67
2022/10/26 04:13:03;;;;;;;5.30;1.48;;;11.80;99.90;;;;;;5039114;28;20052;-66
2022/10/26 04:15:30;;;;;;;6.40;2.10;;;11.80;99.90;;;;;;5037441;28;20053;-69
2022/10/26 04:17:58;;;;;;;2.08;1.30;;;11.80;99.90;;;;;;5036783;28;20801;-64
2022/10/26 04:20:27;;;;;;;4.80;1.98;;;11.80;99.90;;;;;;5035527;28;20451;-66
2022/10/26 04:23:02;;;;;;;2.88;1.63;;;11.80;99.90;;;;;;5039412;28;20132;-65
2022/10/26 04:25:30;;;;;;;3.42;2.47;;;11.80;99.90;;;;;;5037919;28;20049;-69
2022/10/26 04:28:00;;;;;;;3.13;1.73;;;11.80;99.90;;;;;;5040886;28;20096;-71
2022/10/26 04:30:27;;;;;;;7.80;1.70;;;11.70;99.90;;;;;;5040498;28;20175;-65
2022/10/26 04:32:54;;;;;;;4.30;1.85;;;11.70;99.90;;;;;;5043330;28;20048;-65
2022/10/26 04:35:21;;;;;;;9.15;2.10;;;11.70;99.90;;;;;;5039540;28;20055;-71
2022/10/26 04:37:48;;;;;;;4.63;1.42;;;11.70;99.90;;;;;;5039270;28;20045;-66
2022/10/26 04:40:15;;;;;;;3.70;1.63;;;11.70;99.90;;;;;;5040712;28;20049;-65
2022/10/26 04:42:46;;;;;;;6.00;1.83;;;11.70;99.90;;;;;;5038608;28;20045;-68
2022/10/26 04:45:15;;;;;;;5.63;2.22;;;11.70;99.90;;;;;;5038690;28;20052;-68
2022/10/26 04:47:42;;;;;;;4.68;1.25;;;11.70;99.90;;;;;;5041522;28;20037;-66
2022/10/26 04:50:11;;;;;;;8.00;3.17;;;11.70;99.90;;;;;;5036856;28;20072;-65
2022/10/26 04:52:38;;;;;;;7.20;1.05;;;11.70;99.90;;;;;;5041181;28;20045;-76
2022/10/26 04:55:06;;;;;;;4.07;1.25;;;11.70;99.90;;;;;;5035875;28;20048;-66
2022/10/26 04:57:34;;;;;;;5.47;2.08;;;11.70;99.90;;;;;;5033528;28;20049;-64
2022/10/26 05:00:03;;;;;;;3.50;0.80;;;11.70;99.90;;;;;;5034825;28;20530;-66
2022/10/26 05:02:30;;;;;;;7.88;1.33;;;11.70;99.90;;;;;;5036197;28;20487;-71
2022/10/26 05:04:57;;;;;;;1.88;1.05;;;11.70;99.90;;;;;;5038054;28;20045;-65
2022/10/26 05:07:24;;;;;;;4.53;1.48;;;11.70;99.90;;;;;;5040393;28;20041;-66
2022/10/26 05:09:51;;;;;;;2.88;1.67;;;11.70;99.90;;;;;;5032334;28;20040;-67
2022/10/26 05:12:18;;;;;;;5.07;1.17;;;11.70;99.90;;;;;;5038103;28;20084;-65
2022/10/26 05:14:45;;;;;;;5.43;1.85;;;11.70;99.90;;;;;;5034529;28;20056;-65
2022/10/26 05:17:12;;;;;;;3.92;1.83;;;11.70;99.90;;;;;;5036285;28;20120;-65
2022/10/26 05:19:39;;;;;;;4.25;1.20;;;11.70;99.90;;;;;;5033706;28;20057;-65
2022/10/26 05:22:06;;;;;;;6.60;2.58;;;11.60;99.90;;;;;;5037804;28;20042;-66
2022/10/26 05:24:33;;;;;;;5.82;1.40;;;11.70;99.90;;;;;;5029969;28;20044;-74
2022/10/26 05:27:00;;;;;;;4.90;1.55;;;11.70;99.90;;;;;;5035649;28;20148;-65
2022/10/26 05:29:27;;;;;;;3.35;1.50;;;11.70;99.90;;;;;;5035162;28;20535;-70
2022/10/26 05:31:53;;;;;;;6.03;1.10;;;11.70;99.90;;;;;;5039384;28;20558;-65
2022/10/26 05:34:20;;;;;;;3.22;1.45;;;11.70;99.90;;;;;;5034907;28;20159;-67
2022/10/26 05:36:47;;;;;;;4.40;1.50;;;11.70;99.90;;;;;;5038406;28;20141;-66
2022/10/26 05:39:14;;;;;;;3.35;1.17;;;11.80;99.90;;;;;;5037163;28;20056;-66
2022/10/26 05:41:41;;;;;;;6.35;1.42;;;11.80;99.90;;;;;;5032841;28;20056;-65
2022/10/26 05:44:08;;;;;;;4.47;1.15;;;11.70;99.90;;;;;;5038517;28;20048;-67
2022/10/26 05:46:35;;;;;;;3.20;1.38;;;11.70;99.90;;;;;;5032564;28;20041;-66
2022/10/26 05:49:01;;;;;;;3.00;1.20;;;11.80;99.90;;;;;;5034181;28;20049;-68
2022/10/26 05:51:28;;;;;;;6.35;2.10;;;11.80;99.90;;;;;;5034929;28;20171;-69
2022/10/26 05:53:55;;;;;;;5.78;1.40;;;11.80;99.90;;;;;;5034368;28;20081;-66
2022/10/26 05:56:48;;;;;;;1.45;0.80;;;11.80;99.90;;;;;;5040530;28;20049;-69
2022/10/26 05:59:16;;;;;;;3.50;2.55;;;11.70;99.90;;;;;;5034725;28;20466;-68
2022/10/26 06:02:16;;;;;;;2.65;1.10;;;11.70;99.90;;;;;;5038106;28;20052;-65
2022/10/26 06:04:46;;;;;;;4.70;1.08;;;11.80;99.90;;;;;;5037606;28;20063;-67
2022/10/26 06:07:16;;;;;;;2.85;0.90;;;11.80;99.90;;;;;;5037610;28;20076;-65
2022/10/26 06:09:44;;;;;;;4.60;1.20;;;11.80;99.90;;;;;;5038263;28;20053;-66
2022/10/26 06:12:12;;;;;;;3.22;1.00;;;11.80;99.90;;;;;;5039275;28;20219;-68
2022/10/26 06:14:44;;;;;;;2.83;1.20;;;11.80;99.90;;;;;;5040188;28;20131;-66
2022/10/26 06:17:30;;;;;;;3.53;0.88;;;11.70;99.90;;;;;;5036218;28;20059;-67
2022/10/26 06:20:07;;;;;;;4.50;2.15;;;11.70;99.90;;;;;;5039457;28;20063;-66
2022/10/26 06:22:46;;;;;;;5.10;1.85;;;11.70;99.90;;;;;;5034514;28;20107;-66
2022/10/26 06:25:16;;;;;;;9.53;1.70;;;11.70;99.90;;;;;;5037981;28;20367;-69
2022/10/26 06:28:11;;;;;;;2.42;1.20;;;11.80;99.90;;;;;;5037375;28;20036;-72
2022/10/26 06:30:40;;;;;;;4.15;1.10;;;11.80;99.90;;;;;;5036477;28;20427;-65
2022/10/26 06:33:09;;;;;;;2.00;0.95;;;11.80;99.90;;;;;;5042265;28;20534;-68
2022/10/26 06:36:19;;;;;;;5.50;1.02;;;11.80;99.90;;;;;;5041962;28;20494;-64
2022/10/26 06:38:48;;;;;;;4.10;1.42;;;11.80;99.90;;;;;;5034561;28;20148;-64
2022/10/26 06:41:18;;;;;;;7.93;1.83;;;11.80;99.90;;;;;;5039571;28;20068;-64
2022/10/26 06:43:45;;;;;;;5.78;1.58;;;11.80;99.90;;;;;;5039802;28;20051;-66
2022/10/26 06:46:30;;;;;;;4.80;1.15;;;11.80;99.90;;;;;;5036477;28;20151;-67
2022/10/26 06:49:10;;;;;;;2.65;1.33;;;11.80;99.90;;;;;;5037798;28;20504;-71
2022/10/26 06:51:54;;;;;;;5.88;2.22;;;11.80;99.90;;;;;;5037066;28;20072;-64
2022/10/26 06:54:29;;;;;;;6.50;1.30;;;11.80;99.90;;;;;;5037544;28;20147;-66
2022/10/26 06:56:56;;;;;;;7.75;1.80;;;11.80;99.90;;;;;;5039521;28;20525;-66
2022/10/26 06:59:41;;;;;;;5.13;2.20;;;11.80;99.90;;;;;;5037204;28;20155;-68
2022/10/26 07:02:10;;;;;;;3.20;1.75;;;11.80;99.90;;;;;;5036888;28;20041;-67
2022/10/26 07:04:37;;;;;;;6.97;1.60;;;11.80;99.90;;;;;;5032278;28;20144;-70
2022/10/26 07:07:04;;;;;;;5.80;1.48;;;11.80;99.90;;;;;;5037945;28;20045;-65
2022/10/26 07:09:31;;;;;;;4.18;0.90;;;11.80;99.90;;;;;;5039469;28;20566;-64
2022/10/26 07:11:58;;;;;;;4.40;1.23;;;11.80;99.90;;;;;;5042523;28;20593;-69
2022/10/26 07:14:25;;;;;;;4.38;1.48;;;11.80;99.90;;;;;;5032551;28;20072;-68
2022/10/26 07:16:53;;;;;;;4.03;1.98;;;11.90;99.90;;;;;;5038964;28;20050;-66
2022/10/26 07:19:20;;;;;;;3.58;1.23;;;11.90;99.90;;;;;;5035888;28;20084;-66
2022/10/26 07:21:47;;;;;;;6.93;4.60;;;11.90;99.90;;;;;;5038562;28;20049;-64
2022/10/26 07:24:13;;;;;;;3.63;0.98;;;11.90;99.90;;;;;;5041227;28;20148;-67
2022/10/26 07:26:41;;;;;;;5.43;1.63;;;11.90;99.90;;;;;;5036542;28;20051;-67
2022/10/26 07:29:07;;;;;;;3.45;1.88;;;11.90;99.90;;;;;;5042906;28;20128;-64
2022/10/26 07:31:34;;;;;;;7.30;1.42;;;11.90;99.90;;;;;;5043116;28;20055;-65
2022/10/26 07:34:01;;;;;;;5.50;1.27;;;11.90;99.90;;;;;;5037034;28;20049;-68
2022/10/26 07:36:28;;;;;;;12.23;3.55;;;11.90;99.90;;;;;;5044136;28;20049;-67
2022/10/26 07:38:55;;;;;;;3.53;1.73;;;11.90;99.90;;;;;;5046230;28;20056;-64
2022/10/26 07:41:22;;;;;;;4.25;1.52;;;11.90;99.90;;;;;;5042354;28;20057;-66
2022/10/26 07:43:49;;;;;;;3.58;1.42;;;11.90;99.90;;;;;;5039336;28;20053;-65
2022/10/26 07:46:17;;;;;;;4.38;1.30;;;11.90;99.90;;;;;;5039269;28;20091;-64
2022/10/26 07:48:44;;;;;;;12.80;1.77;;;11.90;99.90;;;;;;5035315;28;20462;-65
2022/10/26 07:51:11;;;;;;;2.65;1.02;;;11.90;99.90;;;;;;5046848;28;20063;-66
2022/10/26 07:53:38;;;;;;;8.45;1.48;;;12.00;99.90;;;;;;5043089;28;20168;-67
2022/10/26 07:56:05;;;;;;;4.32;1.50;;;12.00;99.90;;;;;;5043282;28;20045;-71
2022/10/26 07:58:32;;;;;;;3.17;1.35;;;12.00;99.90;;;;;;5038983;28;20136;-64
2022/10/26 08:01:13;;;;;;;7.00;1.63;;;11.90;99.90;;;;;;5041404;28;20135;-66
2022/10/26 08:03:41;;;;;;;2.42;1.40;;;12.00;99.90;;;;;;5040528;28;20487;-67
2022/10/26 08:06:09;;;;;;;10.68;2.55;;;12.00;99.90;;;;;;5035178;28;20073;-65
2022/10/26 08:08:36;;;;;;;4.95;1.92;;;11.90;99.90;;;;;;5041755;28;20044;-68
2022/10/26 08:11:05;;;;;;;4.85;1.45;;;12.00;99.90;;;;;;5038806;28;20703;-65
2022/10/26 08:13:34;;;;;;;2.88;1.25;;;12.00;99.90;;;;;;5043977;28;20103;-67
2022/10/26 08:16:04;;;;;;;3.17;1.20;;;12.00;99.90;;;;;;5044439;28;20049;-65
2022/10/26 08:18:31;;;;;;;5.85;1.73;;;12.00;99.90;;;;;;5033632;28;20052;-64
2022/10/26 08:21:03;;;;;;;6.60;2.10;;;12.00;99.90;;;;;;5037134;28;20037;-64
2022/10/26 08:23:38;;;;;;;5.68;1.42;;;12.10;99.90;;;;;;5037738;28;20053;-72
2022/10/26 08:26:05;;;;;;;3.08;1.52;;;12.10;99.90;;;;;;5041749;28;20044;-66
2022/10/26 08:28:32;;;;;;;4.13;1.17;;;12.00;99.90;;;;;;5042063;28;20634;-64
2022/10/26 08:30:59;;;;;;;5.57;2.00;;;12.10;99.90;;;;;;5041340;28;20049;-68
2022/10/26 08:33:26;;;;;;;3.42;1.13;;;12.10;99.90;;;;;;5045076;28;20517;-67
2022/10/26 08:36:01;;;;;;;4.65;1.15;;;12.10;99.90;;;;;;5037808;28;20064;-71
2022/10/26 08:38:28;;;;;;;4.40;1.58;;;12.10;99.90;;;;;;5041547;28;20525;-68
2022/10/26 08:40:56;;;;;;;5.18;1.98;;;12.10;99.90;;;;;;5038492;28;20046;-63
2022/10/26 08:43:33;;;;;;;8.50;1.67;;;12.10;99.90;;;;;;5040471;28;20092;-70
2022/10/26 08:46:12;;;;;;;2.72;1.17;;;12.10;99.90;;;;;;5039061;28;20080;-66
2022/10/26 08:48:51;;;;;;;4.38;1.08;;;12.10;99.90;;;;;;5037556;28;20446;-68
2022/10/26 08:51:34;;;;;;;3.85;1.25;;;12.10;99.90;;;;;;5044208;28;20417;-70
2022/10/26 08:54:12;;;;;;;6.38;1.75;;;12.10;99.90;;;;;;5038360;28;20495;-71
2022/10/26 08:56:53;;;;;;;10.23;2.40;;;12.10;99.90;;;;;;5038181;28;20148;-66
2022/10/26 08:59:45;;;;;;;3.63;1.40;;;12.10;99.90;;;;;;5037746;28;20103;-67
2022/10/26 09:02:14;;;;;;;5.07;1.35;;;12.10;99.90;;;;;;5039290;28;20709;-64
2022/10/26 09:04:41;;;;;;;5.60;1.20;;;12.10;99.90;;;;;;5034976;28;20053;-67
2022/10/26 09:07:34;;;;;;;3.55;1.40;;;12.10;99.90;;;;;;5039574;28;20049;-70
2022/10/26 09:10:42;;;;;;;3.10;1.98;;;12.10;99.90;;;;;;5027206;28;20053;-66
2022/10/26 09:13:34;;;;;;;5.53;1.88;;;12.10;99.90;;;;;;5009444;28;20083;-64
2022/10/26 09:16:36;;;;;;;4.90;1.27;;;12.20;99.90;;;;;;5009990;28;20172;-69
2022/10/26 09:19:19;;;;;;;2.97;1.73;;;12.20;99.90;;;;;;5029788;28;20127;-67
2022/10/26 09:22:15;;;;;;;6.13;2.10;;;12.20;99.90;;;;;;5043187;28;20188;-67
2022/10/26 09:24:50;;;;;;;3.33;1.15;;;12.10;99.90;;;;;;5032483;28;20352;-66
2022/10/26 09:27:28;;;;;;;4.88;1.35;;;12.20;99.90;;;;;;5039438;28;20518;-64
2022/10/26 09:30:11;;;;;;;2.80;1.40;;;12.10;99.90;;;;;;5042930;28;20051;-65
2022/10/26 09:32:50;;;;;;;2.80;1.10;;;12.20;99.90;;;;;;5036571;28;20367;-67
2022/10/26 09:35:16;;;;;;;3.55;1.40;;;12.10;99.90;;;;;;5038942;28;20040;-64
2022/10/26 09:37:50;;;;;;;2.10;1.17;;;12.20;99.90;;;;;;5040247;28;20053;-65
2022/10/26 09:40:21;;;;;;;4.82;1.25;;;12.20;99.90;;;;;;5037763;28;20041;-67
2022/10/26 09:43:09;;;;;;;2.88;1.40;;;12.10;99.90;;;;;;5038217;28;20048;-71
2022/10/26 09:45:49;;;;;;;3.08;1.88;;;12.20;99.90;;;;;;5038825;28;20048;-68
2022/10/26 09:48:38;;;;;;;5.07;1.30;;;12.10;99.90;;;;;;5035542;28;20053;-66
2022/10/26 09:51:05;;;;;;;7.38;2.03;;;12.20;99.90;;;;;;5036984;28;20140;-67
2022/10/26 09:53:32;;;;;;;1.45;1.10;;;12.20;99.90;;;;;;5035678;28;20096;-69
2022/10/26 09:56:08;;;;;;;7.53;1.50;;;12.10;99.90;;;;;;5036616;28;20059;-68
2022/10/26 09:58:41;;;;;;;2.03;1.02;;;12.20;99.90;;;;;;5041214;28;20114;-67
2022/10/26 10:01:33;;;;;;;7.05;1.83;;;12.20;99.90;;;;;;5038255;28;20179;-67
2022/10/26 10:04:15;;;;;;;4.53;1.10;;;12.20;99.90;;;;;;5040042;28;20127;-69
2022/10/26 10:06:43;;;;;;;7.47;1.58;;;12.20;99.90;;;;;;5034501;28;20396;-66
2022/10/26 10:09:13;;;;;;;3.65;1.40;;;12.20;99.90;;;;;;5037420;28;20405;-64
2022/10/26 10:11:53;;;;;;;1.90;1.40;;;12.20;99.90;;;;;;5034009;28;20062;-69
2022/10/26 10:14:30;;;;;;;3.10;1.42;;;12.10;99.90;;;;;;5043022;28;20932;-66
2022/10/26 10:17:09;;;;;;;4.38;2.30;;;12.10;99.90;;;;;;5039254;28;20091;-69
2022/10/26 10:19:37;;;;;;;1.67;1.10;;;12.20;99.90;;;;;;5030242;28;20132;-68
2022/10/26 10:22:22;;;;;;;11.80;1.50;;;12.20;99.90;;;;;;5032280;28;20127;-65
2022/10/26 10:25:00;;;;;;;5.47;1.60;;;12.20;99.90;;;;;;5035565;28;20045;-64
2022/10/26 10:27:29;;;;;;;3.03;1.75;;;12.20;99.90;;;;;;5035983;28;20049;-70
2022/10/26 10:30:12;;;;;;;5.47;1.80;;;12.20;99.90;;;;;;5035507;28;20067;-64
2022/10/26 10:32:39;;;;;;;5.13;1.10;;;12.30;99.90;;;;;;5033160;28;20566;-66
2022/10/26 10:35:23;;;;;;;4.63;1.63;;;12.30;99.90;;;;;;5033996;28;20071;-65
2022/10/26 10:37:51;;;;;;;5.15;1.42;;;12.30;99.90;;;;;;5036487;28;20102;-64
2022/10/26 10:40:24;;;;;;;6.60;1.88;;;12.30;99.90;;;;;;5035916;28;20136;-65
2022/10/26 10:43:01;;;;;;;2.80;1.48;;;12.30;99.90;;;;;;5033637;28;20094;-64
2022/10/26 10:45:30;;;;;;;10.63;1.20;;;12.30;99.90;;;;;;5034483;28;20053;-66
2022/10/26 10:48:12;;;;;;;3.53;1.25;;;12.30;99.90;;;;;;5035526;28;20506;-64
2022/10/26 10:51:02;;;;;;;1.10;1.00;;;12.30;99.90;;;;;;5033440;28;20045;-67
2022/10/26 10:53:50;;;;;;;3.72;1.45;;;12.30;99.90;;;;;;5035013;28;20139;-66
2022/10/26 10:56:32;;;;;;;3.00;1.40;;;12.40;99.90;;;;;;5042920;28;20409;-65
2022/10/26 10:59:14;;;;;;;9.18;1.27;;;12.40;99.90;;;;;;5037963;28;20045;-65
2022/10/26 11:01:59;;;;;;;3.40;1.23;;;12.40;99.90;;;;;;5042797;28;20071;-67
2022/10/26 11:05:04;;;;;;;4.00;1.30;;;12.40;99.90;;;;;;5040501;28;20403;-67
2022/10/26 11:07:42;;;;;;;6.70;1.27;;;12.40;99.90;;;;;;5041451;28;20049;-68
2022/10/26 11:10:14;;;;;;;5.55;1.27;;;12.40;99.90;;;;;;5041050;28;20053;-64
2022/10/26 11:12:52;;;;;;;1.55;0.98;;;12.40;99.90;;;;;;5036630;28;20063;-65
2022/10/26 11:15:23;;;;;;;3.75;1.60;;;12.40;99.90;;;;;;5040531;28;20534;-70
2022/10/26 11:18:16;;;;;;;2.47;0.80;;;12.40;99.90;;;;;;5043594;28;20041;-69
2022/10/26 11:20:53;;;;;;;2.90;1.00;;;12.40;99.90;;;;;;5042187;28;20565;-64
2022/10/26 11:23:34;;;;;;;4.93;2.15;;;12.30;99.90;;;;;;5043503;28;20060;-67
2022/10/26 11:26:28;;;;;;;3.47;0.90;;;12.30;99.90;;;;;;5041749;28;20049;-65
2022/10/26 11:29:02;;;;;;;6.68;1.70;;;12.40;99.90;;;;;;5039559;28;20053;-65
2022/10/26 11:31:40;;;;;;;4.07;1.17;;;12.40;99.90;;;;;;5042629;28;20063;-66
2022/10/26 11:34:33;;;;;;;4.05;1.88;;;12.40;99.90;;;;;;5042026;28;20119;-63
2022/10/26 11:37:33;;;;;;;1.63;1.00;;;12.30;99.90;;;;;;5042249;28;20096;-65
2022/10/26 11:40:41;;;;;;;2.58;1.52;;;12.30;99.90;;;;;;5037092;28;20049;-64
2022/10/26 11:43:19;;;;;;;3.78;1.23;;;12.30;99.90;;;;;;5038263;28;20072;-70
2022/10/26 11:46:09;;;;;;;5.72;1.73;;;12.20;99.90;;;;;;5046759;28;20056;-64
2022/10/26 11:48:50;;;;;;;2.95;1.17;;;12.20;99.90;;;;;;5034193;28;26875;-65
2022/10/26 11:51:42;;;;;;;1.92;0.93;;;12.20;99.90;;;;;;5041054;28;20159;-66
2022/10/26 11:54:31;;;;;;;5.63;1.20;;;12.20;99.90;;;;;;5039493;28;20087;-63
2022/10/26 11:56:59;;;;;;;2.30;1.02;;;12.10;99.90;;;;;;5040737;28;20600;-65
2022/10/26 11:59:30;;;;;;;6.60;2.13;;;12.10;99.90;;;;;;5038867;28;20047;-68
2022/10/26 12:02:09;;;;;;;9.77;1.55;;;12.10;99.90;;;;;;5046593;28;20127;-67
2022/10/26 12:04:37;;;;;;;1.77;1.05;;;12.10;99.90;;;;;;5034354;28;20049;-65
2022/10/26 12:07:29;;;;;;;5.35;1.70;;;12.10;99.90;;;;;;5039398;28;20153;-67
2022/10/26 12:09:57;;;;;;;3.35;0.90;;;12.10;99.90;;;;;;5038779;28;20055;-66
2022/10/26 12:12:28;;;;;;;3.00;1.08;;;12.10;99.90;;;;;;5038917;28;20057;-64
2022/10/26 12:15:13;;;;;;;2.20;1.05;;;12.10;99.90;;;;;;5042867;28;20049;-64
2022/10/26 12:17:49;;;;;;;5.45;1.48;;;12.10;99.90;;;;;;5039834;28;20155;-67
2022/10/26 12:20:49;;;;;;;3.38;1.35;;;12.10;99.90;;;;;;5037259;28;20141;-63
2022/10/26 12:23:16;;;;;;;3.88;1.05;;;12.10;99.90;;;;;;5013501;28;20045;-64
2022/10/26 12:26:27;;;;;;;2.25;1.10;;;12.00;99.90;;;;;;5036842;28;20145;-65
2022/10/26 12:29:00;;;;;;;4.63;1.35;;;12.00;99.90;;;;;;5035525;28;20128;-66
2022/10/26 12:31:47;;;;;;;5.20;2.17;;;12.00;99.90;;;;;;5044691;28;20067;-69
2022/10/26 12:34:23;;;;;;;1.48;1.30;;;12.00;99.90;;;;;;5036166;28;20140;-69
2022/10/26 12:36:56;;;;;;;1.95;1.15;;;11.90;99.90;;;;;;5020605;28;20049;-71
2022/10/26 12:39:39;;;;;;;1.20;1.08;;;11.90;99.90;;;;;;5042479;28;20059;-66
2022/10/26 12:42:28;;;;;;;2.42;1.00;;;11.90;99.90;;;;;;5035220;28;20045;-65
2022/10/26 12:44:58;;;;;;;4.90;1.20;;;11.90;99.90;;;;;;5034406;28;20140;-67
2022/10/26 12:47:31;;;;;;;3.78;1.33;;;11.90;99.90;;;;;;5038622;28;20064;-70
2022/10/26 12:50:05;;;;;;;5.80;2.30;;;12.00;99.90;;;;;;5039100;28;20063;-66
2022/10/26 12:52:41;;;;;;;5.25;1.10;;;12.00;99.90;;;;;;5036609;28;20045;-66
2022/10/26 12:55:11;;;;;;;2.45;1.25;;;12.00;99.90;;;;;;5043898;28;20467;-66
2022/10/26 12:57:59;;;;;;;1.80;1.10;;;12.00;99.90;;;;;;5041733;28;20141;-68
2022/10/26 13:00:26;;;;;;;3.15;1.20;;;12.00;99.90;;;;;;5041588;28;20053;-67
2022/10/26 13:02:53;;;;;;;2.78;1.42;;;12.10;99.90;;;;;;5040178;28;20135;-65
2022/10/26 13:05:48;;;;;;;3.20;1.02;;;12.10;99.90;;;;;;5040007;28;20431;-64
2022/10/26 13:08:15;;;;;;;2.10;1.23;;;12.10;99.90;;;;;;5037882;28;20067;-68
2022/10/26 13:11:01;;;;;;;3.58;1.30;;;12.10;99.90;;;;;;5036090;28;20144;-66
2022/10/26 13:13:32;;;;;;;10.05;1.70;;;12.10;99.90;;;;;;5040522;28;20037;-65
2022/10/26 13:16:00;;;;;;;1.75;1.40;;;12.10;99.90;;;;;;5039369;28;20702;-71
2022/10/26 13:18:29;;;;;;;3.90;1.77;;;12.00;99.90;;;;;;5039341;28;20080;-68
2022/10/26 13:21:12;;;;;;;9.00;2.20;;;12.00;99.90;;;;;;5038763;28;20059;-67